Tiempo atmosférico en la estación meteorológica de Sena de Luna, Miñera, León (1120 m.)



Fecha
DESCASC
Temp. máxima en grados centígrados (hora)
DESCASC
Temp. mínima en grados centígrados (hora)
DESCASC
Temp. media en grados centígrados
DESCASC
Racha de viento máxima en m/sg (hora)
DESCASC
Velocidad máxima media en intervalos de 10 minutos(hora)
DESCASC
Precipitaciones diarias en mm
DESCASC
Precipitaciones de 00:00 a 06:00 en mm
DESCASC
Precipitaciones de 06:00 a 12:00 en mm
DESCASC
Precipitaciones de 12:00 a 18:00 en mm
DESCASC
Precipitaciones de 18:00 a 24:00 en mm
DESCASC

Gráficas

Temp. máximas Temp. mínimas Temp. medias Precipitaciones Rachas de viento máximas Velocidades máximas media en intervalos de 10 minutos

Datos horarios

Fecha y hora oficial Temperatura (ºC) Velocidad del viento (km/h) Dirección del viento Racha (km/h) Dirección de racha Precipitación (mm) Presión (hPa) Tendencia (hPa) Humedad (%)
2019-06-24 23:00:00 12.6 5 Sur 14 Sur 0 -- -- 100
2019-06-24 22:00:00 12.6 9 Sur 16 Sudoeste 0.4 -- -- 100
2019-06-24 21:00:00 12.6 11 Sudoeste 15 Sur 0.2 -- -- 100
2019-06-24 20:00:00 12.3 6 Nordeste 15 Nordeste 0.2 -- -- 100
2019-06-24 19:00:00 12.6 2 Este 17 Este 0.6 -- -- 100
2019-06-24 18:00:00 12.2 2 Este 14 Sudoeste 1.8 -- -- 100
2019-06-24 17:00:00 12.4 4 Este 14 Sudoeste 5.2 -- -- 100
2019-06-24 16:00:00 12.4 10 Sur 15 Sur 3.4 -- -- 100
2019-06-24 15:00:00 13.4 0 Calma 14 Sur 1 -- -- 98
2019-06-24 14:00:00 12.3 8 Sur 22 Sur 2.4 -- -- 100
2019-06-24 13:00:00 12.5 12 Sur 22 Sur 2.6 -- -- 99
2019-06-24 12:00:00 14.5 6 Sudeste 19 Sur 0.6 -- -- 87
2019-06-24 11:00:00 15.5 8 Sur 17 Sudoeste 0.4 -- -- 97
2019-06-24 10:00:00 15.2 8 Sudeste 23 Sudoeste 0 -- -- 98
2019-06-24 09:00:00 14.8 4 Sudeste 21 Sur 1 -- -- 100
2019-06-24 08:00:00 14.2 4 Sudoeste 18 Sudeste 2.8 -- -- 100
2019-06-24 07:00:00 14.3 12 Sur 34 Sur 0.8 -- -- 100
2019-06-24 06:00:00 14.6 12 Sur 21 Sur 0 -- -- 100
2019-06-24 05:00:00 14.4 11 Sudoeste 24 Sur 0 -- -- 100
2019-06-24 04:00:00 13.8 3 Sur 22 Sudoeste 0.2 -- -- 100
2019-06-24 03:00:00 14.3 13 Sur 22 Sudoeste 0 -- -- 97
2019-06-24 02:00:00 13.9 5 Sudoeste 8 Sudoeste 0.2 -- -- 100
2019-06-24 01:00:00 14.3 6 Sur 15 Sudeste 0 -- -- 100
2019-06-24 00:00:00 14.2 5 Este 13 Este 4 -- -- 100
2019-06-23 23:00:00 14.6 0 Calma 5 Este 4.2 -- -- 100
2019-06-23 22:00:00 14.7 0 Calma 8 Sudoeste 1.4 -- -- 100
2019-06-23 21:00:00 14.7 4 Este 22 Este 10.6 -- -- 100
2019-06-23 20:00:00 16.8 12 Este 25 Sur 0.4 -- -- 87
2019-06-23 19:00:00 18.1 10 Sudeste 27 Sur 0 -- -- 80
2019-06-23 18:00:00 18 10 Sudeste 21 Sudeste 0 -- -- 83
2019-06-23 17:00:00 17.9 7 Sur 24 Sur 0.4 -- -- 86
2019-06-23 16:00:00 15.1 12 Sur 40 Sur 3.4 -- -- 94
2019-06-23 15:00:00 19.5 15 Sur 41 Sur 0 -- -- 56
2019-06-23 14:00:00 18 18 Sur 38 Sur 0 -- -- 64
2019-06-23 13:00:00 16.6 10 Sudeste 32 Sur 0.4 -- -- 72
2019-06-23 12:00:00 17.1 14 Sur 25 Sur 0 -- -- 63
2019-06-23 11:00:00 17 6 Sur 15 Sur 0 -- -- 69
2019-06-23 10:00:00 14.7 10 Sur 22 Sur 0 -- -- 82
2019-06-23 09:00:00 14.2 5 Noroeste 8 Oeste 0.2 -- -- 86
2019-06-23 08:00:00 12 0 Calma 6 Noroeste 0.2 -- -- 89
2019-06-23 07:00:00 12.2 6 Nordeste 16 Oeste 0 -- -- 74
2019-06-23 06:00:00 13.3 2 Norte 13 Norte 0 -- -- 63
2019-06-23 05:00:00 14 4 Noroeste 11 Noroeste 0 -- -- 66
2019-06-23 04:00:00 14.2 0 Calma 8 Oeste 0 -- -- 81
2019-06-23 03:00:00 15.1 3 Oeste 15 Este 0 -- -- 74
2019-06-23 02:00:00 14.5 7 Nordeste 10 Este 0.2 -- -- 86
2019-06-23 01:00:00 17.3 3 Oeste 12 Sur 0 -- -- 61
2019-06-23 00:00:00 17.9 3 Este 7 Sur 0 -- -- 53
2019-06-22 23:00:00 18.2 4 Sudeste 7 Sur 0 -- -- 57
2019-06-22 22:00:00 19.7 3 Sudeste 17 Sur 0 -- -- 52
2019-06-22 21:00:00 22.3 6 Sur 18 Sur 0 -- -- 45
2019-06-22 20:00:00 22.6 17 Sur 30 Este 0 -- -- 43
2019-06-22 19:00:00 24.3 13 Sudeste 33 Sudeste 0 -- -- 39
2019-06-22 18:00:00 24 14 Sudeste 32 Sur 0 -- -- 41
2019-06-22 17:00:00 22.5 18 Sur 33 Sur 0 -- -- 43
2019-06-22 16:00:00 23 25 Sur 39 Sur 0 -- -- 38
2019-06-22 15:00:00 22.6 14 Sur 39 Sur 0 -- -- 40
2019-06-22 14:00:00 20 11 Sudeste 31 Sur 0 -- -- 44
2019-06-22 13:00:00 19.5 15 Sur 28 Sur 0 -- -- 48
2019-06-22 12:00:00 17 18 Sur 27 Sur 0 -- -- 53
2019-06-22 11:00:00 15.7 17 Sur 24 Sur 0 -- -- 60
2019-06-22 10:00:00 16.6 3 Sur 5 Sur 0 -- -- 62
2019-06-22 09:00:00 13.9 2 Sur 4 Sudoeste 0 -- -- 86
2019-06-22 08:00:00 9.3 0 Calma 6 Nordeste 0 -- -- 100
2019-06-22 07:00:00 7.5 4 Nordeste 6 Nordeste 0 -- -- 100
2019-06-22 06:00:00 7.7 2 Este 5 Este 0 -- -- 100
2019-06-22 05:00:00 7.9 2 Nordeste 4 Este 0 -- -- 100
2019-06-22 04:00:00 8.5 2 Este 6 Nordeste 0 -- -- 100
2019-06-22 03:00:00 9.1 5 Este 9 Este 0 -- -- 100
2019-06-22 02:00:00 9.4 3 Nordeste 9 Nordeste 0 -- -- 100
2019-06-22 01:00:00 10 2 Nordeste 8 Este 0 -- -- 97
2019-06-22 00:00:00 11.2 3 Norte 8 Norte 0 -- -- 93
2019-06-21 23:00:00 11.9 0 Calma 13 Noroeste 0 -- -- 91
2019-06-21 22:00:00 13.2 6 Noroeste 19 Noroeste 0 -- -- 81
2019-06-21 21:00:00 15.3 8 Noroeste 24 Noroeste 0 -- -- 72
2019-06-21 20:00:00 17.8 6 Noroeste 20 Oeste 0 -- -- 60
2019-06-21 19:00:00 19.3 11 Sur 32 Sur 0 -- -- 51
2019-06-21 18:00:00 19.1 12 Sur 28 Sur 0 -- -- 47
2019-06-21 17:00:00 21.3 12 Sur 27 Sur 0 -- -- 43
2019-06-21 16:00:00 20.1 17 Sur 26 Sur 0 -- -- 47
2019-06-21 15:00:00 19.6 18 Sur 28 Sur 0 -- -- 48
2019-06-21 14:00:00 19.8 10 Sur 17 Sur 0 -- -- 45
2019-06-21 13:00:00 18.5 5 Sudoeste 17 Sudoeste 0 -- -- 48
2019-06-21 12:00:00 17.5 7 Oeste 19 Noroeste 0 -- -- 60
2019-06-21 11:00:00 16.9 10 Noroeste 25 Norte 0 -- -- 61
2019-06-21 10:00:00 14.5 13 Norte 24 Norte 0 -- -- 69
2019-06-21 09:00:00 12.1 6 Noroeste 20 Noroeste 0 -- -- 80
2019-06-21 08:00:00 10.1 7 Norte 18 Norte 0 -- -- 89
2019-06-21 07:00:00 8.7 4 Norte 9 Norte 0 -- -- 98
2019-06-21 06:00:00 8.4 4 Norte 9 Noroeste 0 -- -- 100
2019-06-21 05:00:00 8.7 0 Calma 10 Noroeste 0 -- -- 100
2019-06-21 04:00:00 7.9 4 Nordeste 8 Este 0 -- -- 100
2019-06-21 03:00:00 7.7 3 Nordeste 10 Noroeste 0 -- -- 100
2019-06-21 02:00:00 9.5 3 Noroeste 16 Norte 0 -- -- 99
2019-06-21 01:00:00 9.9 5 Noroeste 14 Noroeste 0 -- -- 95
2019-06-21 00:00:00 10.1 9 Norte 22 Nordeste 0 -- -- 94
2019-06-20 23:00:00 10.4 11 Norte 30 Norte 0 -- -- 89
2019-06-20 22:00:00 10.6 18 Norte 33 Norte 0 -- -- 87
2019-06-20 21:00:00 10.9 15 Norte 30 Norte 0.2 -- -- 92
2019-06-20 20:00:00 12.6 11 Norte 26 Noroeste 0 -- -- 80
2019-06-20 19:00:00 12.7 7 Noroeste 28 Noroeste 0.4 -- -- 89
2019-06-20 18:00:00 12.4 6 Oeste 23 Noroeste 0.8 -- -- 94
2019-06-20 17:00:00 15 10 Noroeste 29 Noroeste 0 -- -- 70
2019-06-20 16:00:00 22.1 10 Noroeste 21 Noroeste 0 -- -- 49
2019-06-20 15:00:00 19.4 11 Sur 14 Sudoeste 0 -- -- 54
2019-06-20 14:00:00 18.8 6 Sur 18 Sur 0 -- -- 57
2019-06-20 13:00:00 19.2 5 Sur 9 Sur 0 -- -- 54
2019-06-20 12:00:00 17.2 4 Sur 7 Sur 0 -- -- 64
2019-06-20 11:00:00 15.4 4 Sudoeste 6 Sudoeste 0 -- -- 69
2019-06-20 10:00:00 13.1 3 Norte 12 Norte 0 -- -- 82
2019-06-20 09:00:00 11.4 7 Norte 13 Norte 0 -- -- 89
2019-06-20 08:00:00 11 6 Norte 10 Norte 0 -- -- 97
2019-06-20 07:00:00 8.4 5 Nordeste 8 Norte 0 -- -- 100
2019-06-20 06:00:00 8.4 3 Norte 10 Norte 0 -- -- 100
2019-06-20 05:00:00 8 3 Nordeste 13 Norte 0 -- -- 99
2019-06-20 04:00:00 8.3 0 Calma 11 Norte 0 -- -- 100
2019-06-20 03:00:00 8.7 3 Nordeste 14 Norte 0 -- -- 99
2019-06-20 02:00:00 9.5 6 Norte 11 Nordeste 0 -- -- 96
2019-06-20 01:00:00 10.3 7 Norte 14 Nordeste 0 -- -- 93
2019-06-20 00:00:00 10.8 9 Norte 15 Nordeste 0 -- -- 92
2019-06-19 23:00:00 11.3 6 Norte 13 Norte 0 -- -- 90
2019-06-19 22:00:00 13.3 6 Nordeste 12 Norte 0 -- -- 80
2019-06-19 21:00:00 15.2 8 Norte 20 Noroeste 0 -- -- 73
2019-06-19 20:00:00 17.7 7 Oeste 21 Oeste 0 -- -- 61
2019-06-19 19:00:00 20 7 Oeste 21 Oeste 0 -- -- 52
2019-06-19 18:00:00 21.1 7 Oeste 22 Oeste 0 -- -- 49
2019-06-19 17:00:00 21.3 12 Sudoeste 24 Oeste 0 -- -- 47
2019-06-19 16:00:00 20.2 12 Sudoeste 29 Sudoeste 0 -- -- 49
2019-06-19 15:00:00 19.9 11 Sudoeste 34 Sudoeste 0 -- -- 50
2019-06-19 14:00:00 17.2 11 Sur 28 Sur 0 -- -- 64
2019-06-19 13:00:00 15.8 22 Sur 32 Sur -- -- -- 72
2019-06-19 12:00:00 15 19 Sur 27 Sur 0 -- -- 76
2019-06-19 11:00:00 14.7 14 Sur 25 Sur 0 -- -- 75
2019-06-19 10:00:00 14 8 Sur 24 Sudoeste 0 -- -- 78
2019-06-19 09:00:00 13 10 Sur 16 Sur 0 -- -- 88
2019-06-19 08:00:00 12.1 8 Sudoeste 18 Sudeste 0 -- -- 92
2019-06-19 07:00:00 11.8 10 Sudeste 17 Sudoeste 0 -- -- 88
2019-06-19 06:00:00 11.8 10 Sur 20 Sur 0 -- -- 95
2019-06-19 05:00:00 12.1 9 Sudeste 22 Sudeste 0 -- -- 93
2019-06-19 04:00:00 12.4 11 Sudeste 23 Sudeste 0 -- -- 96
2019-06-19 03:00:00 12.2 4 Sudeste 18 Sudeste 0 -- -- 100
2019-06-19 02:00:00 12.2 10 Sudeste 21 Sur 0.6 -- -- 100
2019-06-19 01:00:00 12.3 6 Sudeste 18 Sur 0.4 -- -- 100
2019-06-19 00:00:00 12.4 5 Sur 30 Sur 1 -- -- 100
2019-06-18 23:00:00 12.6 16 Sur 33 Sur 0.8 -- -- 99
2019-06-18 22:00:00 13.4 13 Sur 34 Sur 0.6 -- -- 91
2019-06-18 21:00:00 13.7 14 Sur 47 Sudoeste 0 -- -- 89
2019-06-18 20:00:00 13.8 18 Sur 53 Sur 0.6 -- -- 86
2019-06-18 19:00:00 14.9 36 Sur 49 Sudoeste 0.2 -- -- 75
2019-06-18 18:00:00 15.6 33 Sudoeste 56 Sudoeste 0 -- -- 69
2019-06-18 17:00:00 17.9 39 Sur 63 Sur 0 -- -- 58
2019-06-18 16:00:00 17.4 44 Sur 64 Sur 0 -- -- 61
2019-06-18 15:00:00 17.5 42 Sur 69 Sur 0 -- -- 60
2019-06-18 14:00:00 17.7 28 Sudoeste 62 Sur 0 -- -- 54
2019-06-18 13:00:00 19.6 26 Sudeste 48 Este 0 -- -- 48
2019-06-18 12:00:00 19.8 17 Sudeste 37 Sudeste 0 -- -- 43
2019-06-18 11:00:00 18.7 15 Sur 40 Sur 0 -- -- 35
2019-06-18 10:00:00 17.3 22 Sur 36 Sur 0 -- -- 40
2019-06-18 09:00:00 17.3 10 Sur 23 Sur 0 -- -- 46
2019-06-18 08:00:00 13.5 3 Sur 13 Sudoeste 0 -- -- 64
2019-06-18 07:00:00 9.6 0 Calma 4 Este 0 -- -- 70
2019-06-18 06:00:00 9.5 0 Calma 3 Este 0 -- -- 72
2019-06-18 05:00:00 10.1 0 Calma 7 Este 0 -- -- 67
2019-06-18 04:00:00 10.3 2 Este 8 Este 0 -- -- 61
2019-06-18 03:00:00 11.8 2 Nordeste 9 Este 0 -- -- 55
2019-06-18 02:00:00 15.1 4 Sudoeste 19 Sudeste 0 -- -- 46
2019-06-18 01:00:00 16.6 9 Sudeste 29 Sur 0 -- -- 39
2019-06-18 00:00:00 17.3 16 Sur 30 Sur 0 -- -- 36
2019-06-17 23:00:00 17.5 9 Sur 25 Sur 0 -- -- 34
2019-06-17 22:00:00 18.5 17 Sur 24 Sur 0 -- -- 36
2019-06-17 21:00:00 19.4 9 Sur 44 Sur 0 -- -- 25
2019-06-17 20:00:00 20 21 Sur 32 Sur 0 -- -- 31
2019-06-17 19:00:00 21 9 Sur 33 Sur 0 -- -- 36
2019-06-17 18:00:00 21 26 Sur 42 Sur 0 -- -- 31
2019-06-17 17:00:00 21.7 24 Sur 39 Sur 0 -- -- 31
2019-06-17 16:00:00 22.7 17 Sudeste 38 Sudeste 0 -- -- 30
2019-06-17 15:00:00 23.1 14 Sur 46 Sur 0 -- -- 36
2019-06-17 14:00:00 21.9 22 Sur 44 Sur 0 -- -- 34
2019-06-17 13:00:00 21.1 30 Sur 42 Sur 0 -- -- 36
2019-06-17 12:00:00 20.5 22 Sur 39 Sur 0 -- -- 48
2019-06-17 11:00:00 19 17 Sur 23 Sur 0 -- -- 60
2019-06-17 10:00:00 17.9 2 Sur 5 Sudoeste 0 -- -- 64
2019-06-17 09:00:00 14 2 Sur 4 Sudoeste 0 -- -- 76
2019-06-17 08:00:00 10.4 0 Calma 11 Norte 0 -- -- 100
2019-06-17 07:00:00 6.4 0 Calma 9 Norte 0 -- -- 100
2019-06-17 06:00:00 6.9 0 Calma 9 Norte 0 -- -- 100
2019-06-17 05:00:00 6.7 3 Nordeste 9 Norte 0 -- -- 100
2019-06-17 04:00:00 7.7 6 Norte 12 Norte 0 -- -- 100
2019-06-17 03:00:00 8.8 3 Norte 10 Noroeste 0 -- -- 99
2019-06-17 02:00:00 9.3 5 Norte 10 Norte 0 -- -- 99
2019-06-17 01:00:00 9.7 8 Norte 12 Norte 0 -- -- 98
2019-06-17 00:00:00 11.6 3 Nordeste 15 Noroeste 0 -- -- 82
2019-06-16 23:00:00 12.9 5 Nordeste 15 Noroeste 0 -- -- 77
2019-06-16 22:00:00 15.6 6 Noroeste 23 Norte 0 -- -- 69
2019-06-16 21:00:00 19.6 4 Oeste 25 Sudeste 0 -- -- 48
2019-06-16 20:00:00 21.1 14 Sur 27 Sudoeste 0 -- -- 37
2019-06-16 19:00:00 21.8 10 Sur 27 Sur 0 -- -- 33
2019-06-16 18:00:00 22.9 12 Sudoeste 28 Sur 0 -- -- 29
2019-06-16 17:00:00 22.1 15 Sur 25 Sur 0 -- -- 35
2019-06-16 16:00:00 22 12 Sudoeste 26 Sur 0 -- -- 36
2019-06-16 15:00:00 21.4 14 Sur 28 Sur 0 -- -- 37
2019-06-16 14:00:00 20.5 11 Sur 27 Sudoeste 0 -- -- 42
2019-06-16 13:00:00 19.1 18 Sur 26 Sur 0 -- -- 45
2019-06-16 12:00:00 18.3 11 Sur 19 Sur 0 -- -- 50
2019-06-16 11:00:00 17.2 3 Sudeste 7 Sur 0 -- -- 60
2019-06-16 10:00:00 11.3 3 Sudoeste 7 Sudoeste 0 -- -- 92
2019-06-16 09:00:00 7.1 0 Calma 7 Norte 0 -- -- 100
2019-06-16 08:00:00 5.2 2 Nordeste 8 Noroeste 0 -- -- 100
2019-06-16 07:00:00 4.5 5 Norte 9 Norte 0 -- -- 100
2019-06-16 06:00:00 4.2 3 Norte 10 Norte 0 -- -- 100
2019-06-16 05:00:00 4.7 3 Nordeste 7 Norte 0 -- -- 100
2019-06-16 04:00:00 5 3 Norte 6 Norte 0 -- -- 100
2019-06-16 03:00:00 5.9 2 Norte 4 Noroeste 0 -- -- 100
2019-06-16 02:00:00 6.3 0 Calma 8 Norte 0 -- -- 100
2019-06-16 01:00:00 6.6 0 Calma 8 Norte 0 -- -- 100
2019-06-16 00:00:00 7.7 6 Norte 11 Norte 0 -- -- 96
2019-06-15 23:00:00 8.9 9 Norte 19 Noroeste 0 -- -- 90
2019-06-15 22:00:00 10.7 6 Noroeste 22 Noroeste 0 -- -- 81
2019-06-15 21:00:00 12.5 11 Noroeste 28 Noroeste 0 -- -- 73
2019-06-15 20:00:00 15.7 9 Noroeste 26 Noroeste 0 -- -- 60
2019-06-15 19:00:00 17.5 12 Noroeste 29 Noroeste 0 -- -- 53
2019-06-15 18:00:00 19 14 Sur 33 Sur 0 -- -- 43
2019-06-15 17:00:00 18.5 16 Sur 38 Sur 0 -- -- 41
2019-06-15 16:00:00 17.9 19 Sur 31 Sudeste 0 -- -- 39
2019-06-15 15:00:00 17.6 14 Sur 26 Sur 0 -- -- 42
2019-06-15 14:00:00 16.3 16 Sur 28 Sur 0 -- -- 48
2019-06-15 13:00:00 15.5 16 Sur 26 Sur 0 -- -- 54
2019-06-15 12:00:00 13.9 14 Sur 22 Sur 0 -- -- 54
2019-06-15 11:00:00 14.8 3 Sudoeste 11 Sur 0 -- -- 51
2019-06-15 10:00:00 13.8 3 Oeste 15 Noroeste 0 -- -- 56
2019-06-15 09:00:00 12 5 Norte 10 Norte 0 -- -- 63
2019-06-15 08:00:00 7.2 0 Calma 4 Este 0 -- -- 84
2019-06-15 07:00:00 3.6 2 Nordeste 5 Nordeste 0 -- -- 100
2019-06-15 06:00:00 3.7 2 Nordeste 6 Este 0 -- -- 100
2019-06-15 05:00:00 4.2 3 Nordeste 5 Este 0 -- -- 100
2019-06-15 04:00:00 4.5 4 Este 6 Este 0 -- -- 99
2019-06-15 03:00:00 6.2 0 Calma 12 Norte 0 -- -- 93
2019-06-15 02:00:00 7 4 Noroeste 16 Nordeste 0 -- -- 90
2019-06-15 01:00:00 7.9 9 Norte 24 Nordeste 0 -- -- 87
2019-06-15 00:00:00 8.1 10 Nordeste 21 Nordeste 0 -- -- 87
2019-06-14 23:00:00 8.7 15 Nordeste 22 Nordeste 0 -- -- 85
2019-06-14 22:00:00 9.6 9 Norte 22 Norte 0 -- -- 80
2019-06-14 21:00:00 10.3 12 Norte 28 Norte 0 -- -- 79
2019-06-14 20:00:00 11 10 Nordeste 27 Norte 0 -- -- 78
2019-06-14 19:00:00 11 19 Norte 29 Norte 0 -- -- 78
2019-06-14 18:00:00 14.1 12 Norte 26 Norte 0 -- -- 64
2019-06-14 17:00:00 13.7 16 Norte 30 Noroeste 0 -- -- 63
2019-06-14 16:00:00 17.7 10 Oeste 26 Noroeste 0 -- -- 49
2019-06-14 15:00:00 17.6 12 Sur 27 Sur 0 -- -- 41
2019-06-14 14:00:00 18.4 19 Sur 26 Sur 0 -- -- 41
2019-06-14 13:00:00 17.2 17 Sur 25 Sur 0 -- -- 48
2019-06-14 12:00:00 16.6 14 Sur 27 Sur 0 -- -- 46
2019-06-14 11:00:00 14 5 Sudoeste 8 Sudoeste 0 -- -- 65
2019-06-14 10:00:00 11.1 6 Norte 13 Norte 0 -- -- 73
2019-06-14 09:00:00 9.1 7 Norte 12 Norte 0 -- -- 82
2019-06-14 08:00:00 5.9 5 Norte 9 Norte 0 -- -- 100
2019-06-14 07:00:00 2.4 4 Norte 8 Norte 0 -- -- 100
2019-06-14 06:00:00 2.4 0 Calma 4 Nordeste 0 -- -- 100
2019-06-14 05:00:00 3 0 Calma 5 Este 0 -- -- 100
2019-06-14 04:00:00 3.3 2 Nordeste 8 Noroeste 0 -- -- 100
2019-06-14 03:00:00 3.7 0 Calma 6 Este 0 -- -- 100
2019-06-14 02:00:00 3.4 3 Este 9 Norte 0 -- -- 100
2019-06-14 01:00:00 4.6 3 Norte 8 Noroeste 0 -- -- 98
2019-06-14 00:00:00 5.6 0 Calma 8 Norte 0 -- -- 94
2019-06-13 23:00:00 6.6 5 Norte 13 Noroeste 0 -- -- 91
2019-06-13 22:00:00 8.1 9 Norte 19 Norte 0 -- -- 85
2019-06-13 21:00:00 9.2 10 Norte 25 Norte 0 -- -- 80
2019-06-13 20:00:00 11.1 14 Noroeste 28 Noroeste 0 -- -- 71
2019-06-13 19:00:00 14.4 9 Noroeste 29 Noroeste 0 -- -- 59
2019-06-13 18:00:00 15.5 14 Noroeste 33 Noroeste 0 -- -- 55
2019-06-13 17:00:00 17 8 Sudeste 36 Sur 0 -- -- 40
2019-06-13 16:00:00 16.2 17 Sur 35 Sur 0 -- -- 42
2019-06-13 15:00:00 17.1 13 Sur 32 Sur 0 -- -- 43
2019-06-13 14:00:00 16.6 16 Sur 32 Sur 0 -- -- 47
2019-06-13 13:00:00 15.2 13 Sur 24 Sur 0 -- -- 49
2019-06-13 12:00:00 14.1 11 Sur 24 Sur 0 -- -- 56
2019-06-13 11:00:00 12.6 13 Sur 18 Sur 0 -- -- 60
2019-06-13 10:00:00 12.7 2 Sur 5 Sur 0 -- -- 62
2019-06-13 09:00:00 10.2 3 Norte 12 Noroeste 0 -- -- 72
2019-06-13 08:00:00 6.7 2 Nordeste 4 Este 0 -- -- 96
2019-06-13 07:00:00 2.5 2 Este 6 Este 0 -- -- 100
2019-06-13 06:00:00 2.8 0 Calma 4 Noroeste 0 -- -- 100
2019-06-13 05:00:00 2.3 3 Nordeste 4 Este 0 -- -- 100
2019-06-13 04:00:00 2.8 3 Nordeste 5 Este 0 -- -- 99
2019-06-13 03:00:00 4.2 0 Calma 8 Nordeste 0 -- -- 96
2019-06-13 02:00:00 4.9 3 Nordeste 23 Nordeste 0 -- -- 94
2019-06-13 01:00:00 3.9 4 Nordeste 9 Norte 0 -- -- 96
2019-06-13 00:00:00 5.1 5 Norte 19 Noroeste 0 -- -- 91
2019-06-12 23:00:00 6.9 12 Norte 21 Norte 0 -- -- 84
2019-06-12 22:00:00 6.9 16 Norte 26 Norte 0 -- -- 86
2019-06-12 21:00:00 9.5 11 Norte 22 Noroeste 0 -- -- 74
2019-06-12 20:00:00 12.3 13 Noroeste 24 Noroeste 0 -- -- 62
2019-06-12 19:00:00 13.3 15 Norte 27 Norte 0 -- -- 57
2019-06-12 18:00:00 15.6 13 Norte 26 Norte 0 -- -- 49
2019-06-12 17:00:00 14 12 Noroeste 24 Nordeste 0 -- -- 53
2019-06-12 16:00:00 14.5 10 Este 26 Sur 0 -- -- 47
2019-06-12 15:00:00 13.2 17 Sur 25 Sur 0 -- -- 46
2019-06-12 14:00:00 14.9 6 Sur 13 Sudoeste 0 -- -- 40
2019-06-12 13:00:00 14.4 5 Oeste 15 Norte 0 -- -- 42
2019-06-12 12:00:00 12.7 5 Sur 12 Este 0 -- -- 44
2019-06-12 11:00:00 11.7 5 Sudeste 12 Sudeste 0 -- -- 50
2019-06-12 10:00:00 11.7 4 Oeste 14 Oeste 0 -- -- 48
2019-06-12 09:00:00 10.3 5 Oeste 12 Oeste 0 -- -- 59
2019-06-12 08:00:00 5 4 Nordeste 14 Oeste 0 -- -- 81
2019-06-12 07:00:00 2.8 5 Oeste 21 Noroeste 0 -- -- 86
2019-06-12 06:00:00 2.9 9 Noroeste 24 Norte 0 -- -- 80
2019-06-12 05:00:00 2.2 11 Noroeste 22 Noroeste 0 -- -- 85
2019-06-12 04:00:00 3.6 4 Noroeste 23 Noroeste 0 -- -- 78
2019-06-12 03:00:00 4.6 9 Noroeste 28 Noroeste 0 -- -- 73
2019-06-12 02:00:00 4.8 9 Noroeste 23 Oeste 0 -- -- 69
2019-06-12 01:00:00 5.4 8 Noroeste 24 Noroeste 0 -- -- 78
2019-06-12 00:00:00 5.4 6 Noroeste 25 Noroeste 0 -- -- 69
2019-06-11 23:00:00 5.9 9 Noroeste 29 Norte 0.2 -- -- 72
2019-06-11 22:00:00 6 7 Noroeste 33 Noroeste 0 -- -- 77
2019-06-11 21:00:00 7.3 12 Noroeste 30 Noroeste 0 -- -- 66
2019-06-11 20:00:00 9.1 10 Noroeste 26 Noroeste 0 -- -- 60
2019-06-11 19:00:00 9.6 6 Noroeste 26 Noroeste 0 -- -- 71
2019-06-11 18:00:00 9.8 13 Noroeste 31 Noroeste 0 -- -- 62
2019-06-11 17:00:00 10.1 11 Norte 22 Noroeste 0 -- -- 63
2019-06-11 16:00:00 10.3 7 Noroeste 24 Oeste 0.2 -- -- 67
2019-06-11 15:00:00 10.5 7 Oeste 22 Nordeste 0 -- -- 66
2019-06-11 14:00:00 10 6 Noroeste 22 Noroeste 0.4 -- -- 71
2019-06-11 13:00:00 7.9 23 Nordeste 35 Nordeste 0 -- -- 74
2019-06-11 12:00:00 9.8 8 Noroeste 23 Oeste 0 -- -- 63
2019-06-11 11:00:00 8.2 8 Noroeste 31 Norte 0 -- -- 69
2019-06-11 10:00:00 9.3 14 Norte 26 Norte 0 -- -- 67
2019-06-11 09:00:00 6.8 8 Noroeste 23 Noroeste 0 -- -- 68
2019-06-11 08:00:00 4.7 4 Norte 21 Norte 0.2 -- -- 90
2019-06-11 07:00:00 4 8 Norte 27 Norte 0.2 -- -- 94
2019-06-11 06:00:00 4.8 6 Noroeste 14 Noroeste 0.2 -- -- 93
2019-06-11 05:00:00 5.3 4 Norte 16 Oeste 0 -- -- 92
2019-06-11 04:00:00 5.5 6 Oeste 17 Oeste 0 -- -- 87
2019-06-11 03:00:00 6 5 Oeste 27 Noroeste 0 -- -- 81
2019-06-11 02:00:00 6.5 11 Noroeste 29 Noroeste 0 -- -- 72
2019-06-11 01:00:00 6.5 11 Noroeste 30 Noroeste 0 -- -- 90
2019-06-11 00:00:00 7.3 11 Norte 21 Norte 0 -- -- 81
2019-06-10 23:00:00 7.6 10 Norte 24 Norte 0 -- -- 81
2019-06-10 22:00:00 7.7 8 Norte 23 Nordeste 0 -- -- 82
2019-06-10 21:00:00 8.1 18 Norte 28 Norte 0 -- -- 84
2019-06-10 20:00:00 9.5 16 Norte 32 Norte 0 -- -- 77
2019-06-10 19:00:00 12.4 15 Noroeste 28 Norte 0 -- -- 65
2019-06-10 18:00:00 14.6 17 Norte 28 Norte 0 -- -- 57
2019-06-10 17:00:00 14.9 15 Norte 25 Norte 0 -- -- 55
2019-06-10 16:00:00 16.5 13 Norte 25 Noroeste 0 -- -- 50
2019-06-10 15:00:00 16.6 10 Noroeste 24 Noroeste 0 -- -- 49
2019-06-10 14:00:00 15.8 6 Sudoeste 14 Sur 0 -- -- 46
2019-06-10 13:00:00 13 9 Sur 15 Sudoeste 0 -- -- 53
2019-06-10 12:00:00 13.2 7 Sudoeste 16 Sudeste 0 -- -- 50
2019-06-10 11:00:00 14 5 Nordeste 12 Norte 0 -- -- 54
2019-06-10 10:00:00 10 4 Este 7 Nordeste 0 -- -- 71
2019-06-10 09:00:00 6.1 2 Nordeste 8 Nordeste 0 -- -- 93
2019-06-10 08:00:00 3.2 2 Nordeste 6 Norte 0 -- -- 100
2019-06-10 07:00:00 2.5 3 Nordeste 8 Nordeste 0 -- -- 100
2019-06-10 06:00:00 2.2 3 Nordeste 10 Norte 0 -- -- 100
2019-06-10 05:00:00 2.4 3 Nordeste 7 Este 0 -- -- 100
2019-06-10 04:00:00 3.6 3 Nordeste 8 Este 0 -- -- 98
2019-06-10 03:00:00 3.8 0 Calma 9 Norte 0 -- -- 96
2019-06-10 02:00:00 4.8 5 Noroeste 11 Noroeste 0 -- -- 95
2019-06-10 01:00:00 5.3 5 Norte 18 Norte 0 -- -- 90
2019-06-10 00:00:00 6.6 9 Norte 21 Norte 0 -- -- 83
2019-06-09 23:00:00 7.4 17 Nordeste 30 Nordeste 0 -- -- 81
2019-06-09 22:00:00 7.8 15 Nordeste 31 Norte 0 -- -- 82
2019-06-09 21:00:00 8.4 18 Norte 32 Norte 0 -- -- 82
2019-06-09 20:00:00 9.2 20 Norte 39 Norte 0 -- -- 79
2019-06-09 19:00:00 12.1 20 Norte 34 Norte 0 -- -- 68
2019-06-09 18:00:00 12.3 24 Norte 35 Norte 0 -- -- 70
2019-06-09 17:00:00 13.3 24 Norte 34 Norte 0 -- -- 67
2019-06-09 16:00:00 14 17 Norte 32 Noroeste 0 -- -- 64
2019-06-09 15:00:00 14.6 15 Noroeste 30 Norte 0 -- -- 63
2019-06-09 14:00:00 16.8 9 Norte 26 Noroeste 0 -- -- 56
2019-06-09 13:00:00 18.1 4 Oeste 13 Oeste 0 -- -- 48
2019-06-09 12:00:00 16.1 5 Sudoeste 10 Sur 0 -- -- 50
2019-06-09 11:00:00 14.9 3 Sur 7 Oeste 0 -- -- 62
2019-06-09 10:00:00 12.8 2 Noroeste 8 Noroeste 0 -- -- 73
2019-06-09 09:00:00 7.3 3 Norte 12 Noroeste 0 -- -- 97
2019-06-09 08:00:00 6 5 Noroeste 10 Norte 0 -- -- 100
2019-06-09 07:00:00 3.8 0 Calma 8 Norte 0 -- -- 100
2019-06-09 06:00:00 4.2 2 Norte 9 Norte 0 -- -- 100
2019-06-09 05:00:00 4.1 4 Nordeste 13 Norte 0 -- -- 100
2019-06-09 04:00:00 4.7 3 Este 7 Este 0 -- -- 100
2019-06-09 03:00:00 5 2 Nordeste 6 Este 0 -- -- 100
2019-06-09 02:00:00 5.6 2 Este 9 Noroeste 0 -- -- 97
2019-06-09 01:00:00 7.9 2 Norte 13 Noroeste 0 -- -- 89
2019-06-09 00:00:00 9 8 Noroeste 19 Noroeste 0 -- -- 82
2019-06-08 23:00:00 9.2 9 Noroeste 18 Noroeste 0 -- -- 81
2019-06-08 22:00:00 9.6 6 Noroeste 21 Noroeste 0 -- -- 80
2019-06-08 21:00:00 10.1 14 Norte 30 Noroeste 0 -- -- 76
2019-06-08 20:00:00 12.4 10 Noroeste 27 Noroeste 0 -- -- 66
2019-06-08 19:00:00 16.9 5 Oeste 22 Noroeste 0 -- -- 50
2019-06-08 18:00:00 17 9 Sur 29 Sur 0 -- -- 38
2019-06-08 17:00:00 17.1 13 Sur 27 Sur 0 -- -- 42
2019-06-08 16:00:00 17.5 12 Sur 27 Sur 0 -- -- 42
2019-06-08 15:00:00 16 9 Sudoeste 24 Sur 0 -- -- 49
2019-06-08 14:00:00 14.8 12 Sudoeste 26 Sur 0 -- -- 52
2019-06-08 13:00:00 13.6 12 Sur 21 Sur 0 -- -- 56
2019-06-08 12:00:00 12.2 12 Sur 20 Sudoeste 0 -- -- 60
2019-06-08 11:00:00 11.2 7 Sur 13 Sur 0 -- -- 67
2019-06-08 10:00:00 10 2 Sudoeste 6 Norte 0 -- -- 68
2019-06-08 09:00:00 4.8 2 Norte 12 Norte 0 -- -- 93
2019-06-08 08:00:00 3.6 4 Nordeste 10 Norte 0 -- -- 100
2019-06-08 07:00:00 1 4 Norte 11 Norte 0 -- -- 100
2019-06-08 06:00:00 0.8 6 Norte 13 Norte 0 -- -- 100
2019-06-08 05:00:00 0.9 3 Nordeste 8 Este 0 -- -- 100
2019-06-08 04:00:00 1.3 4 Nordeste 10 Este 0 -- -- 100
2019-06-08 03:00:00 1.5 3 Este 6 Norte 0 -- -- 100
2019-06-08 02:00:00 1.5 5 Nordeste 7 Este 0 -- -- 100
2019-06-08 01:00:00 2.9 4 Nordeste 11 Norte 0 -- -- 93
2019-06-08 00:00:00 3.1 5 Norte 11 Noroeste 0 -- -- 93
2019-06-07 23:00:00 5 7 Noroeste 29 Noroeste 0 -- -- 86
2019-06-07 22:00:00 6.6 8 Noroeste 25 Noroeste 0 -- -- 75
2019-06-07 21:00:00 8.8 6 Noroeste 18 Noroeste 0 -- -- 62
2019-06-07 20:00:00 9.7 8 Noroeste 23 Noroeste 0 -- -- 58
2019-06-07 19:00:00 10.3 12 Oeste 34 Noroeste 0 -- -- 62
2019-06-07 18:00:00 13.3 7 Oeste 24 Noroeste 0 -- -- 51
2019-06-07 17:00:00 10.8 9 Oeste 28 Oeste 0 -- -- 58
2019-06-07 16:00:00 11.1 10 Oeste 27 Oeste 0 -- -- 57
2019-06-07 15:00:00 12.4 6 Oeste 21 Noroeste 0 -- -- 48
2019-06-07 14:00:00 13.6 5 Oeste 27 Oeste 0 -- -- 47
2019-06-07 13:00:00 12.4 8 Noroeste 35 Noroeste 0 -- -- 50
2019-06-07 12:00:00 9.7 13 Oeste 37 Noroeste 0 -- -- 57
2019-06-07 11:00:00 7.3 8 Noroeste 32 Norte 0.2 -- -- 72
2019-06-07 10:00:00 7 9 Noroeste 25 Norte 0 -- -- 66
2019-06-07 09:00:00 4.8 6 Norte 18 Noroeste 0 -- -- 84
2019-06-07 08:00:00 6.2 8 Oeste 21 Noroeste 0 -- -- 75
2019-06-07 07:00:00 3.6 2 Norte 17 Sudoeste 0 -- -- 90
2019-06-07 06:00:00 4.3 10 Sudoeste 16 Sudoeste 0 -- -- 90
2019-06-07 05:00:00 3.8 5 Oeste 17 Noroeste 0 -- -- 92
2019-06-07 04:00:00 4.7 5 Oeste 26 Sudoeste 0 -- -- 88
2019-06-07 03:00:00 5.6 14 Sudoeste 32 Sudoeste 0 -- -- 81
2019-06-07 02:00:00 5.6 15 Sur 41 Sudoeste 0 -- -- 86
2019-06-07 01:00:00 5.6 25 Sur 47 Sur 0 -- -- 92
2019-06-07 00:00:00 6.5 29 Sur 42 Sur 0 -- -- 84
2019-06-06 23:00:00 6.7 22 Sur 47 Sur 0 -- -- 87
2019-06-06 22:00:00 6.9 15 Sudoeste 41 Sudoeste 0.2 -- -- 86
2019-06-06 21:00:00 7.1 21 Sudoeste 66 Sur 5 -- -- 90
2019-06-06 20:00:00 8.8 31 Sur 63 Sudeste 1.2 -- -- 97
2019-06-06 19:00:00 8.5 18 Sudeste 40 Sudeste 3.6 -- -- 96
2019-06-06 18:00:00 8.4 10 Sur 34 Este 3.4 -- -- 95
2019-06-06 17:00:00 8.6 12 Sudeste 47 Sur 1.6 -- -- 80
2019-06-06 16:00:00 10.5 19 Sur 57 Sur 0 -- -- 60
2019-06-06 15:00:00 11.2 46 Sur 63 Sur 0 -- -- 59
2019-06-06 14:00:00 10.2 32 Sur 51 Sur 0 -- -- 62
2019-06-06 13:00:00 10.1 15 Sudeste 53 Sur 0 -- -- 62
2019-06-06 12:00:00 8.7 24 Sur 46 Sur 0 -- -- 70
2019-06-06 11:00:00 7.5 11 Sudeste 34 Sur 0 -- -- 72
2019-06-06 10:00:00 6.2 22 Sur 30 Sur 0 -- -- 79
2019-06-06 09:00:00 5.9 6 Sur 15 Sur 0 -- -- 79
2019-06-06 08:00:00 4.5 0 Calma 10 Este 0 -- -- 88
2019-06-06 07:00:00 1.6 3 Nordeste 6 Este 0 -- -- 97
2019-06-06 06:00:00 1 0 Calma 8 Nordeste 0 -- -- 100
2019-06-06 05:00:00 0.2 3 Este 8 Norte 0 -- -- 100
2019-06-06 04:00:00 1.3 2 Norte 6 Este 0 -- -- 95
2019-06-06 03:00:00 1.2 4 Este 6 Este 0 -- -- 95
2019-06-06 02:00:00 1.3 3 Nordeste 6 Este 0 -- -- 94
2019-06-06 01:00:00 3.1 2 Nordeste 10 Noroeste 0 -- -- 81
2019-06-06 00:00:00 5.3 5 Norte 22 Norte 0 -- -- 72
2019-06-05 23:00:00 6 6 Norte 24 Noroeste 0 -- -- 68
2019-06-05 22:00:00 6.8 5 Noroeste 21 Noroeste 0 -- -- 66
2019-06-05 21:00:00 7 9 Noroeste 26 Oeste 0 -- -- 65
2019-06-05 20:00:00 9.2 7 Oeste 34 Noroeste 0 -- -- 58
2019-06-05 19:00:00 9.6 7 Noroeste 27 Noroeste 0 -- -- 57
2019-06-05 18:00:00 11 12 Noroeste 39 Noroeste 0 -- -- 53
2019-06-05 17:00:00 12.6 13 Noroeste 30 Noroeste 0 -- -- 43
2019-06-05 16:00:00 12 12 Noroeste 36 Noroeste 0 -- -- 51
2019-06-05 15:00:00 13.4 14 Oeste 34 Noroeste 0 -- -- 52
2019-06-05 14:00:00 14.2 13 Noroeste 32 Norte 0 -- -- 49
2019-06-05 13:00:00 13.4 7 Noroeste 30 Norte 0 -- -- 45
2019-06-05 12:00:00 14.1 12 Noroeste 26 Noroeste 0 -- -- 50
2019-06-05 11:00:00 10.1 4 Oeste 21 Oeste 0 -- -- 60
2019-06-05 10:00:00 13.3 5 Oeste 21 Noroeste 0 -- -- 53
2019-06-05 09:00:00 10.7 4 Oeste 22 Noroeste 0 -- -- 61
2019-06-05 08:00:00 6.1 8 Noroeste 22 Noroeste 0 -- -- 82
2019-06-05 07:00:00 6.2 8 Noroeste 21 Noroeste 0 -- -- 82
2019-06-05 06:00:00 6 6 Noroeste 20 Noroeste 0 -- -- 82
2019-06-05 05:00:00 6.7 7 Noroeste 19 Noroeste 0 -- -- 80
2019-06-05 04:00:00 6.6 8 Noroeste 20 Norte -- -- -- 81
2019-06-05 03:00:00 6.4 9 Norte 19 Norte 0 -- -- 82
2019-06-05 02:00:00 7.3 13 Nordeste 28 Norte 0 -- -- 81
2019-06-05 01:00:00 7.7 15 Norte 28 Norte 0 -- -- 81
2019-06-05 00:00:00 7.9 15 Norte 24 Norte 0 -- -- 80
2019-06-04 23:00:00 9.1 9 Nordeste 21 Norte 0 -- -- 77
2019-06-04 22:00:00 9 7 Norte 18 Nordeste 0 -- -- 76
2019-06-04 21:00:00 12.1 5 Noroeste 17 Norte 0 -- -- 53
2019-06-04 20:00:00 14.7 9 Oeste 27 Noroeste 0 -- -- 46
2019-06-04 19:00:00 14.2 8 Noroeste 23 Oeste 0 -- -- 58
2019-06-04 18:00:00 13.9 7 Norte 22 Sudoeste 0 -- -- 66
2019-06-04 17:00:00 16.1 12 Oeste 35 Oeste 0 -- -- 49
2019-06-04 16:00:00 19.3 16 Oeste 34 Oeste 0 -- -- 48
2019-06-04 15:00:00 17.6 21 Sudoeste 35 Sur 0 -- -- 56
2019-06-04 14:00:00 16.5 22 Sur 37 Sur 0 -- -- 64
2019-06-04 13:00:00 15.2 10 Sudoeste 39 Sur 0 -- -- 70
2019-06-04 12:00:00 15.5 21 Sudoeste 41 Sur 0 -- -- 65
2019-06-04 11:00:00 15.4 16 Sur 27 Sur 0 -- -- 64
2019-06-04 10:00:00 15.4 9 Sur 27 Sur 0 -- -- 62
2019-06-04 09:00:00 13.4 17 Sudoeste 27 Sur 0 -- -- 67
2019-06-04 08:00:00 10.6 8 Este 12 Este 0 -- -- 92
2019-06-04 07:00:00 9.8 0 Calma 6 Este 0 -- -- 98
2019-06-04 06:00:00 8.7 3 Este 5 Nordeste 0 -- -- 100
2019-06-04 05:00:00 9.2 3 Este 6 Este 0 -- -- 100
2019-06-04 04:00:00 9.6 3 Este 8 Norte 0 -- -- 100
2019-06-04 03:00:00 10.3 0 Calma 6 Este 0 -- -- 99
2019-06-04 02:00:00 11.2 3 Nordeste 6 Este 0 -- -- 100
2019-06-04 01:00:00 13.3 0 Calma 8 Nordeste 0 -- -- 86
2019-06-04 00:00:00 13.4 0 Calma 8 Este 0 -- -- 85
2019-06-03 23:00:00 14.9 0 Calma 10 Nordeste 0 -- -- 77
2019-06-03 22:00:00 16.8 0 Calma 13 Noroeste 0 -- -- 72
2019-06-03 21:00:00 19.9 5 Noroeste 24 Sudoeste 0 -- -- 61
2019-06-03 20:00:00 22.3 15 Sudoeste 30 Oeste 0 -- -- 50
2019-06-03 19:00:00 23.8 18 Oeste 28 Oeste 0 -- -- 47
2019-06-03 18:00:00 23 13 Sur 28 Sur 0 -- -- 45
2019-06-03 17:00:00 23.8 15 Sur 31 Sur 0 -- -- 42
2019-06-03 16:00:00 22.4 14 Sur 32 Sur 0 -- -- 50
2019-06-03 15:00:00 22.4 21 Sur 36 Sur 0 -- -- 47
2019-06-03 14:00:00 21.3 21 Sur 33 Sur 0 -- -- 51
2019-06-03 13:00:00 22 19 Sur 32 Sur 0 -- -- 49
2019-06-03 12:00:00 22.3 3 Sudoeste 12 Sudoeste 0 -- -- 43
2019-06-03 11:00:00 20 7 Sudoeste 13 Sudoeste 0 -- -- 48
2019-06-03 10:00:00 19.8 4 Oeste 9 Norte 0 -- -- 47
2019-06-03 09:00:00 15.9 3 Nordeste 6 Nordeste 0 -- -- 64
2019-06-03 08:00:00 13.1 4 Norte 8 Noroeste 0 -- -- 76
2019-06-03 07:00:00 13 3 Oeste 5 Oeste 0 -- -- 67
2019-06-03 06:00:00 13.2 5 Noroeste 9 Oeste 0 -- -- 64
2019-06-03 05:00:00 13.6 3 Noroeste 7 Este 0 -- -- 66
2019-06-03 04:00:00 13.4 3 Oeste 15 Nordeste 0 -- -- 65
2019-06-03 03:00:00 13.4 4 Noroeste 13 Oeste 0 -- -- 72
2019-06-03 02:00:00 15 5 Noroeste 9 Norte 0 -- -- 59
2019-06-03 01:00:00 14.5 3 Nordeste 9 Este 0 -- -- 56
2019-06-03 00:00:00 15.6 2 Nordeste 6 Este 0 -- -- 52
2019-06-02 23:00:00 16.6 5 Este 10 Nordeste 0 -- -- 50
2019-06-02 22:00:00 18 3 Este 14 Oeste 0 -- -- 46
2019-06-02 21:00:00 20.2 3 Sudoeste 12 Sudoeste 0 -- -- 37
2019-06-02 20:00:00 22.1 3 Oeste 15 Oeste 0 -- -- 34
2019-06-02 19:00:00 22.4 5 Oeste 32 Sudoeste 0 -- -- 32
2019-06-02 18:00:00 23.4 13 Oeste 30 Oeste 0 -- -- 27
2019-06-02 17:00:00 25.9 11 Oeste 26 Oeste 0 -- -- 21
2019-06-02 16:00:00 25.7 13 Oeste 35 Sur 0 -- -- 23
2019-06-02 15:00:00 24.8 24 Sudoeste 36 Sur 0 -- -- 27
2019-06-02 14:00:00 24.3 24 Sudoeste 45 Sur 0 -- -- 29
2019-06-02 13:00:00 24.8 14 Sur 27 Sur 0 -- -- 28
2019-06-02 12:00:00 23.5 3 Sur 8 Sudoeste 0 -- -- 31
2019-06-02 11:00:00 19 3 Sudoeste 11 Noroeste 0 -- -- 57
2019-06-02 10:00:00 17.9 5 Sudoeste 10 Norte 0 -- -- 62
2019-06-02 09:00:00 14.1 9 Norte 16 Noroeste 0 -- -- 79
2019-06-02 08:00:00 9.8 8 Norte 15 Nordeste 0 -- -- 97
2019-06-02 07:00:00 9.6 8 Norte 16 Nordeste 0 -- -- 99
2019-06-02 06:00:00 10.4 6 Norte 13 Norte 0 -- -- 97
2019-06-02 05:00:00 11.3 9 Norte 14 Norte 0 -- -- 93
2019-06-02 04:00:00 11.7 6 Noroeste 13 Norte 0 -- -- 87
2019-06-02 03:00:00 13 2 Este 8 Norte 0 -- -- 81
2019-06-02 02:00:00 13.1 6 Norte 13 Norte 0 -- -- 80
2019-06-02 01:00:00 14.3 4 Norte 8 Noroeste 0 -- -- 71
2019-06-02 00:00:00 15.9 3 Este 13 Noroeste 0 -- -- 66
2019-06-01 23:00:00 17.4 3 Nordeste 9 Oeste 0 -- -- 60
2019-06-01 22:00:00 20.1 5 Norte 16 Norte 0 -- -- 52
2019-06-01 21:00:00 22.6 9 Norte 19 Noroeste 0 -- -- 47
2019-06-01 20:00:00 24.4 10 Norte 27 Norte 0 -- -- 42
2019-06-01 19:00:00 28 6 Oeste 27 Oeste 0 -- -- 34
2019-06-01 18:00:00 28.4 15 Oeste 32 Sur 0 -- -- 25
2019-06-01 17:00:00 29.6 9 Sudoeste 23 Sudoeste 0 -- -- 24
2019-06-01 16:00:00 28.8 9 Sudoeste 30 Sudoeste 0 -- -- 23
2019-06-01 15:00:00 27 17 Sur 34 Sudoeste 0 -- -- 29
2019-06-01 14:00:00 27 11 Sur 25 Sur 0 -- -- 32
2019-06-01 13:00:00 26.4 13 Sudeste 23 Sur 0 -- -- 31
2019-06-01 12:00:00 23.5 8 Sur 12 Sur 0 -- -- 38
2019-06-01 11:00:00 20.6 3 Sudoeste 6 Sudoeste 0 -- -- 50
2019-06-01 10:00:00 19.2 3 Sudoeste 10 Noroeste 0 -- -- 54
2019-06-01 09:00:00 15.3 7 Noroeste 18 Norte 0 -- -- 68
2019-06-01 08:00:00 12.4 5 Norte 14 Norte 0 -- -- 78
2019-06-01 07:00:00 8.5 7 Norte 10 Norte 0 -- -- 93
2019-06-01 06:00:00 9.1 4 Norte 17 Norte 0 -- -- 89
2019-06-01 05:00:00 9.8 2 Norte 11 Norte 0 -- -- 85
2019-06-01 04:00:00 10.5 5 Norte 9 Noroeste 0 -- -- 86
2019-06-01 03:00:00 11.6 5 Nordeste 13 Noroeste 0 -- -- 76
2019-06-01 02:00:00 12.9 5 Norte 12 Norte 0 -- -- 72
2019-06-01 01:00:00 14 3 Nordeste 11 Norte 0 -- -- 68
2019-06-01 00:00:00 14.8 5 Nordeste 12 Nordeste 0 -- -- 64
2019-05-31 23:00:00 16.5 3 Nordeste 9 Norte 0 -- -- 58
2019-05-31 22:00:00 19.1 4 Este 17 Norte 0 -- -- 50
2019-05-31 21:00:00 22.3 7 Norte 18 Norte 0 -- -- 42
2019-05-31 20:00:00 24.5 13 Norte 27 Norte 0 -- -- 37
2019-05-31 19:00:00 25.9 16 Norte 29 Norte 0 -- -- 35
2019-05-31 18:00:00 27 17 Norte 28 Noroeste 0 -- -- 31
2019-05-31 17:00:00 28.4 6 Sudoeste 18 Sur 0 -- -- 26
2019-05-31 16:00:00 27.8 7 Sudeste 11 Sur 0 -- -- 26
2019-05-31 15:00:00 26.9 6 Sudoeste 9 Sudoeste 0 -- -- 26
2019-05-31 14:00:00 25.8 5 Sur 10 Oeste 0 -- -- 24
2019-05-31 13:00:00 25.4 4 Sur 10 Sur 0 -- -- 29
2019-05-31 12:00:00 23.2 8 Sur 10 Sur 0 -- -- 37
2019-05-31 11:00:00 20.1 3 Sudoeste 7 Sudoeste 0 -- -- 49
2019-05-31 10:00:00 17.4 3 Sudoeste 10 Noroeste 0 -- -- 58
2019-05-31 09:00:00 14.7 7 Norte 13 Norte 0 -- -- 68
2019-05-31 08:00:00 10.6 4 Nordeste 12 Norte 0 -- -- 82
2019-05-31 07:00:00 7.2 6 Norte 14 Noroeste 0 -- -- 99
2019-05-31 06:00:00 7.8 9 Norte 13 Norte 0 -- -- 97
2019-05-31 05:00:00 8.3 3 Norte 11 Norte 0 -- -- 91
2019-05-31 04:00:00 8.9 3 Nordeste 12 Norte 0 -- -- 86
2019-05-31 03:00:00 10.1 7 Norte 10 Norte 0 -- -- 86
2019-05-31 02:00:00 11.4 3 Este 11 Noroeste 0 -- -- 77
2019-05-31 01:00:00 12.4 3 Norte 11 Este 0 -- -- 72
2019-05-31 00:00:00 13.3 5 Nordeste 12 Nordeste 0 -- -- 73
2019-05-30 23:00:00 15.2 5 Norte 16 Norte 0 -- -- 63
2019-05-30 22:00:00 18.3 13 Norte 26 Norte 0 -- -- 55
2019-05-30 21:00:00 20.1 13 Norte 37 Norte 0 -- -- 50
2019-05-30 20:00:00 22.4 16 Norte 35 Norte 0 -- -- 42
2019-05-30 19:00:00 23.4 21 Norte 38 Norte 0 -- -- 39
2019-05-30 18:00:00 25.1 16 Norte 31 Nordeste 0 -- -- 34
2019-05-30 17:00:00 25.6 20 Nordeste 36 Este 0 -- -- 29
2019-05-30 16:00:00 25.9 17 Norte 27 Norte 0 -- -- 28
2019-05-30 15:00:00 26.2 14 Este 25 Este 0 -- -- 30
2019-05-30 14:00:00 25.6 11 Oeste 21 Oeste 0 -- -- 38
2019-05-30 13:00:00 21.9 13 Sur 16 Sur 0 -- -- 51
2019-05-30 12:00:00 21 5 Sur 8 Sudoeste 0 -- -- 44
2019-05-30 11:00:00 17.5 4 Sudoeste 7 Sur 0 -- -- 47
2019-05-30 10:00:00 16.5 3 Sudoeste 9 Norte 0 -- -- 54
2019-05-30 09:00:00 12.9 8 Norte 13 Norte 0 -- -- 64
2019-05-30 08:00:00 9 8 Norte 13 Norte 0 -- -- 82
2019-05-30 07:00:00 5.5 5 Norte 10 Norte 0 -- -- 95
2019-05-30 06:00:00 6 3 Nordeste 12 Norte 0 -- -- 95
2019-05-30 05:00:00 6 4 Nordeste 10 Norte 0 -- -- 90
2019-05-30 04:00:00 7.3 4 Norte 12 Norte 0 -- -- 90
2019-05-30 03:00:00 8.1 0 Calma 6 Este 0 -- -- 79
2019-05-30 02:00:00 8.4 2 Nordeste 9 Norte 0 -- -- 74
2019-05-30 01:00:00 9.1 3 Este 9 Nordeste 0 -- -- 68
2019-05-30 00:00:00 10.8 2 Noroeste 10 Oeste 0 -- -- 65
2019-05-29 23:00:00 12.9 7 Norte 22 Norte 0 -- -- 66
2019-05-29 22:00:00 14.8 17 Norte 24 Norte 0 -- -- 56
2019-05-29 21:00:00 16.6 9 Norte 28 Nordeste 0 -- -- 47
2019-05-29 20:00:00 18.2 16 Nordeste 37 Norte 0 -- -- 43
2019-05-29 19:00:00 19.6 14 Norte 32 Norte 0 -- -- 41
2019-05-29 18:00:00 19.7 19 Nordeste 36 Nordeste 0 -- -- 43
2019-05-29 17:00:00 20.3 17 Nordeste 37 Este 0 -- -- 44
2019-05-29 16:00:00 20 22 Nordeste 36 Nordeste 0 -- -- 44
2019-05-29 15:00:00 19.7 18 Nordeste 33 Noroeste 0 -- -- 46
2019-05-29 14:00:00 18.7 22 Norte 37 Noroeste 0 -- -- 47
2019-05-29 13:00:00 19 14 Noroeste 35 Noroeste 0 -- -- 48
2019-05-29 12:00:00 17.3 17 Noroeste 42 Noroeste 0 -- -- 52
2019-05-29 11:00:00 16.1 24 Norte 44 Noroeste 0 -- -- 51
2019-05-29 10:00:00 15.9 9 Noroeste 21 Noroeste 0 -- -- 54
2019-05-29 09:00:00 13.5 5 Noroeste 14 Noroeste 0 -- -- 61
2019-05-29 08:00:00 8.8 5 Nordeste 17 Norte 0 -- -- 77
2019-05-29 07:00:00 5.8 5 Noroeste 20 Noroeste 0 -- -- 87
2019-05-29 06:00:00 6.3 11 Oeste 18 Oeste 0 -- -- 87
2019-05-29 05:00:00 6.2 4 Norte 15 Norte 0 -- -- 85
2019-05-29 04:00:00 6.6 7 Norte 22 Norte 0 -- -- 82
2019-05-29 03:00:00 6.7 13 Norte 24 Nordeste 0 -- -- 81
2019-05-29 02:00:00 6.9 11 Nordeste 23 Norte 0 -- -- 80
2019-05-29 01:00:00 7.1 14 Norte 29 Norte 0 -- -- 77
2019-05-29 00:00:00 7.3 9 Norte 20 Nordeste 0 -- -- 75
2019-05-28 23:00:00 8 11 Norte 33 Norte 0 -- -- 74
2019-05-28 22:00:00 8.8 15 Norte 32 Noroeste 0 -- -- 73
2019-05-28 21:00:00 9.3 23 Norte 39 Norte 0 -- -- 69
2019-05-28 20:00:00 9.9 22 Norte 46 Norte 0 -- -- 66
2019-05-28 19:00:00 11.6 29 Nordeste 50 Norte 0 -- -- 65
2019-05-28 18:00:00 12.7 32 Nordeste 51 Nordeste 0 -- -- 60
2019-05-28 17:00:00 14.3 19 Nordeste 42 Nordeste 0 -- -- 54
2019-05-28 16:00:00 14.1 26 Nordeste 45 Nordeste 0 -- -- 56
2019-05-28 15:00:00 14.6 25 Nordeste 47 Nordeste 0 -- -- 55
2019-05-28 14:00:00 15.2 18 Nordeste 32 Nordeste 0 -- -- 50
2019-05-28 13:00:00 14.1 19 Nordeste 32 Nordeste 0 -- -- 55
2019-05-28 12:00:00 12.2 24 Nordeste 36 Nordeste 0 -- -- 56
2019-05-28 11:00:00 11.8 10 Nordeste 30 Norte 0 -- -- 57
2019-05-28 10:00:00 9.9 18 Norte 28 Norte 0 -- -- 60
2019-05-28 09:00:00 10.8 7 Noroeste 19 Noroeste 0 -- -- 58
2019-05-28 08:00:00 8.2 9 Noroeste 25 Noroeste 0 -- -- 70
2019-05-28 07:00:00 5.3 6 Norte 20 Norte 0 -- -- 78
2019-05-28 06:00:00 5.7 7 Noroeste 24 Noroeste 0 -- -- 77
2019-05-28 05:00:00 6.1 7 Noroeste 24 Norte 0 -- -- 78
2019-05-28 04:00:00 6.5 15 Norte 28 Noroeste 0 -- -- 76
2019-05-28 03:00:00 7 12 Noroeste 27 Noroeste 0 -- -- 75
2019-05-28 02:00:00 7.3 12 Noroeste 26 Noroeste 0 -- -- 71
2019-05-28 01:00:00 7.5 11 Noroeste 27 Noroeste 0 -- -- 73
2019-05-28 00:00:00 8 12 Norte 31 Norte 0 -- -- 65
2019-05-27 23:00:00 8.7 25 Norte 45 Norte 0 -- -- 63
2019-05-27 22:00:00 8.7 15 Norte 33 Nordeste 0 -- -- 68
2019-05-27 21:00:00 10.6 16 Norte 33 Norte 0 -- -- 63
2019-05-27 20:00:00 11.9 17 Nordeste 38 Norte 0 -- -- 68
2019-05-27 19:00:00 13.6 19 Nordeste 40 Norte 0 -- -- 64
2019-05-27 18:00:00 16.4 18 Norte 32 Nordeste 0 -- -- 56
2019-05-27 17:00:00 16.2 23 Nordeste 35 Nordeste 0 -- -- 58
2019-05-27 16:00:00 17 21 Nordeste 41 Este 0 -- -- 55
2019-05-27 15:00:00 17.4 21 Nordeste 42 Norte 0 -- -- 55
2019-05-27 14:00:00 16.9 18 Nordeste 32 Norte 0 -- -- 60
2019-05-27 13:00:00 19.2 15 Nordeste 30 Nordeste 0 -- -- 54
2019-05-27 12:00:00 17.1 12 Noroeste 21 Noroeste 0 -- -- 58
2019-05-27 11:00:00 19.8 5 Oeste 15 Oeste 0 -- -- 54
2019-05-27 10:00:00 17.3 6 Oeste 20 Norte 0 -- -- 63
2019-05-27 09:00:00 12.5 8 Noroeste 18 Oeste 0 -- -- 79
2019-05-27 08:00:00 8.6 3 Nordeste 15 Noroeste 0 -- -- 93
2019-05-27 07:00:00 7.9 7 Norte 14 Norte 0 -- -- 92
2019-05-27 06:00:00 7.7 4 Norte 12 Norte 0 -- -- 94
2019-05-27 05:00:00 8.4 4 Norte 15 Noroeste 0 -- -- 90
2019-05-27 04:00:00 7.6 4 Nordeste 9 Este 0 -- -- 91
2019-05-27 03:00:00 8.1 4 Norte 18 Noroeste 0 -- -- 89
2019-05-27 02:00:00 9.7 3 Norte 22 Norte 0 -- -- 81
2019-05-27 01:00:00 11 6 Noroeste 18 Noroeste 0 -- -- 72
2019-05-27 00:00:00 12.5 11 Noroeste 17 Noroeste 0 -- -- 66
2019-05-26 23:00:00 12.6 7 Noroeste 18 Noroeste 0 -- -- 74
2019-05-26 22:00:00 14.6 8 Noroeste 25 Norte 0 -- -- 65
2019-05-26 21:00:00 16.2 13 Norte 23 Nordeste 0 -- -- 60
2019-05-26 20:00:00 18.6 13 Norte 22 Norte 0 -- -- 52
2019-05-26 19:00:00 19.8 15 Norte 27 Norte 0 -- -- 50
2019-05-26 18:00:00 21.1 17 Norte 30 Norte 0 -- -- 43
2019-05-26 17:00:00 21.6 9 Nordeste 36 Noroeste 0 -- -- 44
2019-05-26 16:00:00 21.4 24 Nordeste 39 Nordeste 0 -- -- 44
2019-05-26 15:00:00 21.6 21 Nordeste 40 Nordeste 0 -- -- 43
2019-05-26 14:00:00 21.7 13 Norte 31 Norte 0 -- -- 42
2019-05-26 13:00:00 21 14 Nordeste 29 Norte 0 -- -- 44
2019-05-26 12:00:00 20.7 12 Nordeste 25 Nordeste 0 -- -- 43
2019-05-26 11:00:00 21.3 6 Oeste 13 Oeste 0 -- -- 42
2019-05-26 10:00:00 18.8 5 Norte 11 Noroeste 0 -- -- 51
2019-05-26 09:00:00 14.4 2 Sudoeste 10 Nordeste 0 -- -- 62
2019-05-26 08:00:00 10.7 3 Nordeste 9 Este 0 -- -- 71
2019-05-26 07:00:00 7.7 3 Norte 13 Nordeste 0 -- -- 81
2019-05-26 06:00:00 7.8 4 Norte 15 Norte 0 -- -- 82
2019-05-26 05:00:00 8 10 Norte 18 Norte 0 -- -- 83
2019-05-26 04:00:00 8.3 8 Noroeste 18 Noroeste 0 -- -- 85
2019-05-26 03:00:00 8.4 12 Noroeste 19 Norte 0 -- -- 89
2019-05-26 02:00:00 8.4 8 Noroeste 18 Noroeste 0 -- -- 90
2019-05-26 01:00:00 8.3 6 Noroeste 18 Noroeste 0 -- -- 90
2019-05-26 00:00:00 9.6 14 Norte 28 Norte 0 -- -- 84